createdAt,value
2022-08-17T00:02:26.152Z,94636.59
2022-08-17T00:04:54.755Z,94656.16
2022-08-17T00:07:21.762Z,94651.56
2022-08-17T00:09:48.662Z,94655.47
2022-08-17T00:12:40.945Z,94676.63
2022-08-17T00:15:05.225Z,94671.41
2022-08-17T00:17:32.617Z,94677.53
2022-08-17T00:20:00.781Z,94683.28
2022-08-17T00:22:34.672Z,94683.56
2022-08-17T00:25:09.803Z,94691.78
2022-08-17T00:27:36.406Z,94693.91
2022-08-17T00:30:05.389Z,94693.75
2022-08-17T00:33:15.012Z,94695.53
2022-08-17T00:35:25.382Z,94703.22
2022-08-17T00:37:52.735Z,94688.28
2022-08-17T00:40:20.419Z,94692.28
2022-08-17T00:42:48.941Z,94698.03
2022-08-17T00:45:17.863Z,94688.56
2022-08-17T00:47:44.691Z,94685.69
2022-08-17T00:50:15.316Z,94691.34
2022-08-17T00:52:51.111Z,94685.78
2022-08-17T00:55:20.026Z,94687.31
2022-08-17T00:57:55.174Z,94676.03
2022-08-17T01:00:27.777Z,94667.31
2022-08-17T01:03:01.361Z,94676.03
2022-08-17T01:05:32.854Z,94671.97
2022-08-17T01:08:01.973Z,94689.22
2022-08-17T01:10:57.555Z,94691.47
2022-08-17T01:13:26.025Z,94686.53
2022-08-17T01:15:57.655Z,94691.94
2022-08-17T01:18:25.578Z,94703.06
2022-08-17T01:20:55.430Z,94697.38
2022-08-17T01:23:24.874Z,94701.00
2022-08-17T01:25:57.755Z,94702.34
2022-08-17T01:28:53.018Z,94704.50
2022-08-17T01:31:15.163Z,94708.09
2022-08-17T01:33:41.852Z,94713.13
2022-08-17T01:36:08.631Z,94715.97
2022-08-17T01:38:37.136Z,94711.41
2022-08-17T01:41:09.165Z,94714.78
2022-08-17T01:43:52.026Z,94719.25
2022-08-17T01:46:27.290Z,94725.81
2022-08-17T01:48:56.602Z,94711.84
2022-08-17T01:51:25.528Z,94716.53
2022-08-17T01:53:57.502Z,94719.56
2022-08-17T01:56:28.489Z,94707.47
2022-08-17T01:58:56.117Z,94709.31
2022-08-17T02:01:27.032Z,94714.50
2022-08-17T02:04:01.388Z,94712.22
2022-08-17T02:06:52.568Z,94698.84
2022-08-17T02:09:25.677Z,94697.69
2022-08-17T02:11:57.514Z,94712.91
2022-08-17T02:14:25.121Z,94718.03
2022-08-17T02:16:52.454Z,94704.28
2022-08-17T02:19:19.160Z,94704.88
2022-08-17T02:21:48.508Z,94710.41
2022-08-17T02:25:01.189Z,94719.69
2022-08-17T02:27:18.826Z,94719.06
2022-08-17T02:29:45.464Z,94731.59
2022-08-17T02:32:28.532Z,94733.25
2022-08-17T02:34:57.529Z,94739.91
2022-08-17T02:37:25.428Z,94744.75
2022-08-17T02:39:52.576Z,94727.81
2022-08-17T02:42:27.393Z,94721.78
2022-08-17T02:44:54.013Z,94719.38
2022-08-17T02:47:20.661Z,94677.50
2022-08-17T02:49:55.520Z,94641.75
2022-08-17T02:52:42.753Z,94642.22
2022-08-17T02:55:19.344Z,94644.06
2022-08-17T02:57:46.976Z,94652.94
2022-08-17T03:00:21.629Z,94650.84
2022-08-17T03:02:49.149Z,94642.94
2022-08-17T03:05:19.496Z,94632.00
2022-08-17T03:07:46.238Z,94648.75
2022-08-17T03:10:14.393Z,94648.81
2022-08-17T03:12:42.449Z,94652.00
2022-08-17T03:15:14.500Z,94650.00
2022-08-17T03:17:41.333Z,94647.66
2022-08-17T03:20:08.880Z,94646.97
2022-08-17T03:22:38.510Z,94645.09
2022-08-17T03:25:10.618Z,94631.34
2022-08-17T03:27:38.456Z,94631.56
2022-08-17T03:30:11.697Z,94627.44
2022-08-17T03:32:41.886Z,94626.31
2022-08-17T03:35:11.194Z,94613.34
2022-08-17T03:37:39.564Z,94603.66
2022-08-17T03:40:08.266Z,94604.78
2022-08-17T03:42:37.447Z,94592.84
2022-08-17T03:45:06.606Z,94597.28
2022-08-17T03:47:33.296Z,94589.47
2022-08-17T03:50:00.314Z,94586.91
2022-08-17T03:52:26.918Z,94587.94
2022-08-17T03:54:53.762Z,94585.28
2022-08-17T03:57:20.566Z,94583.84
2022-08-17T03:59:47.728Z,94596.09
2022-08-17T04:02:22.923Z,94591.44
2022-08-17T04:04:50.422Z,94599.84
2022-08-17T04:07:19.244Z,94595.41
2022-08-17T04:09:46.075Z,94601.69
2022-08-17T04:12:15.892Z,94603.59
2022-08-17T04:14:51.911Z,94611.19
2022-08-17T04:17:22.560Z,94611.13
2022-08-17T04:19:49.213Z,94608.72
2022-08-17T04:22:32.978Z,94615.00
2022-08-17T04:25:17.862Z,94605.38
2022-08-17T04:27:44.477Z,94609.38
2022-08-17T04:30:12.240Z,94603.78
2022-08-17T04:33:00.689Z,94597.91
2022-08-17T04:35:40.987Z,94595.47
2022-08-17T04:38:10.763Z,94589.81
2022-08-17T04:40:38.118Z,94589.88
2022-08-17T04:43:09.475Z,94588.66
2022-08-17T04:45:51.219Z,94586.38
2022-08-17T04:48:35.499Z,94591.63
2022-08-17T04:51:11.537Z,94600.69
2022-08-17T04:53:40.942Z,94599.75
2022-08-17T04:56:11.871Z,94609.25
2022-08-17T04:58:46.769Z,94608.44
2022-08-17T05:01:14.154Z,94622.44
2022-08-17T05:03:41.535Z,94618.94
2022-08-17T05:06:08.731Z,94610.44
2022-08-17T05:08:35.719Z,94620.63
2022-08-17T05:11:02.420Z,94612.22
2022-08-17T05:13:29.305Z,94611.81
2022-08-17T05:16:01.035Z,94610.34
2022-08-17T05:18:29.129Z,94614.44
2022-08-17T05:20:56.388Z,94621.78
2022-08-17T05:23:25.703Z,94620.56
2022-08-17T05:25:55.888Z,94619.59
2022-08-17T05:28:27.590Z,94628.69
2022-08-17T05:31:00.678Z,94632.41
2022-08-17T05:33:32.376Z,94643.41
2022-08-17T05:36:01.174Z,94645.66
2022-08-17T05:38:29.871Z,94645.63
2022-08-17T05:40:58.260Z,94655.56
2022-08-17T05:43:28.359Z,94656.19
2022-08-17T05:46:13.227Z,94653.84
2022-08-17T05:48:47.348Z,94653.59
2022-08-17T05:51:57.322Z,94660.50
2022-08-17T05:55:14.376Z,94674.59
2022-08-17T05:57:54.122Z,94676.88
2022-08-17T06:00:42.975Z,94688.19
2022-08-17T06:03:38.641Z,94683.88
2022-08-17T06:06:25.225Z,94677.13
2022-08-17T06:09:09.875Z,94679.47
2022-08-17T06:11:53.549Z,94689.00
2022-08-17T06:14:39.018Z,94683.66
2022-08-17T06:17:14.676Z,94701.88
2022-08-17T06:19:59.779Z,94706.66
2022-08-17T06:22:36.461Z,94712.00
2022-08-17T06:25:14.455Z,94710.94
2022-08-17T06:27:53.907Z,94719.94
2022-08-17T06:30:28.147Z,94724.06
2022-08-17T06:33:03.342Z,94720.75
2022-08-17T06:35:44.347Z,94717.91
2022-08-17T06:38:37.178Z,94713.47
2022-08-17T06:41:10.777Z,94706.97
2022-08-17T06:44:03.683Z,94708.09
2022-08-17T06:46:43.856Z,94711.44
2022-08-17T06:49:40.799Z,94711.09
2022-08-17T06:52:42.120Z,94706.16
2022-08-17T06:55:20.578Z,94714.44
2022-08-17T06:58:05.815Z,94719.72
2022-08-17T07:00:46.662Z,94724.28
2022-08-17T07:03:25.519Z,94719.72
2022-08-17T07:05:54.622Z,94726.19
2022-08-17T07:08:47.058Z,94722.44
2022-08-17T07:11:25.606Z,94738.25
2022-08-17T07:13:57.933Z,94729.06
2022-08-17T07:16:28.826Z,94722.53
2022-08-17T07:18:57.928Z,94724.63
2022-08-17T07:22:17.095Z,94726.94
2022-08-17T07:24:57.179Z,94736.59
2022-08-17T07:27:39.038Z,94748.47
2022-08-17T07:30:10.800Z,94745.47
2022-08-17T07:32:42.683Z,94744.75
2022-08-17T07:35:15.190Z,94745.31
2022-08-17T07:38:06.101Z,94742.13
2022-08-17T07:40:55.323Z,94734.09
2022-08-17T07:43:25.950Z,94735.94
2022-08-17T07:46:02.516Z,94733.47
2022-08-17T07:48:29.219Z,94726.31
2022-08-17T07:50:55.910Z,94725.13
2022-08-17T07:53:25.844Z,94720.53
2022-08-17T07:55:53.859Z,94723.34
2022-08-17T07:58:23.368Z,94733.78
2022-08-17T08:01:22.559Z,94724.94
2022-08-17T08:03:52.631Z,94728.06
2022-08-17T08:06:24.354Z,94731.47
2022-08-17T08:08:55.154Z,94749.34
2022-08-17T08:11:34.961Z,94750.09
2022-08-17T08:14:28.672Z,94750.63
2022-08-17T08:17:22.359Z,94748.31
2022-08-17T08:19:49.250Z,94738.66
2022-08-17T08:22:29.984Z,94735.53
2022-08-17T08:24:59.438Z,94737.63
2022-08-17T08:27:49.548Z,94738.53
2022-08-17T08:30:20.301Z,94736.16
2022-08-17T08:32:52.938Z,94748.84
2022-08-17T08:35:31.327Z,94748.38
2022-08-17T08:38:34.198Z,94751.81
2022-08-17T08:41:33.225Z,94744.34
2022-08-17T08:44:59.958Z,94751.63
2022-08-17T08:47:35.616Z,94739.69
2022-08-17T08:50:37.506Z,94735.53
2022-08-17T08:53:10.120Z,94738.50
2022-08-17T08:55:50.942Z,94736.78
2022-08-17T08:58:32.023Z,94736.94
2022-08-17T09:01:25.543Z,94736.09
2022-08-17T09:04:25.710Z,94742.06
2022-08-17T09:07:01.445Z,94736.09
2022-08-17T09:09:58.699Z,94725.22
2022-08-17T09:12:50.593Z,94725.09
2022-08-17T09:15:27.763Z,94728.28
2022-08-17T09:18:58.830Z,94717.38
2022-08-17T09:21:01.235Z,94706.09
2022-08-17T09:23:46.381Z,94722.88
2022-08-17T09:26:17.872Z,94727.47
2022-08-17T09:28:52.168Z,94730.13
2022-08-17T09:31:33.401Z,94740.88
2022-08-17T09:34:07.878Z,94749.25
2022-08-17T09:36:44.603Z,94743.72
2022-08-17T09:39:24.304Z,94740.78
2022-08-17T09:42:01.483Z,94726.41
2022-08-17T09:44:37.885Z,94719.97
2022-08-17T09:47:10.454Z,94725.34
2022-08-17T09:50:10.516Z,94732.47
2022-08-17T09:52:37.606Z,94731.72
2022-08-17T09:55:05.608Z,94727.22
2022-08-17T09:57:45.636Z,94734.50
2022-08-17T10:00:19.537Z,94734.84
2022-08-17T10:03:16.900Z,94732.50
2022-08-17T10:06:01.690Z,94729.22
2022-08-17T10:08:49.339Z,94728.34
2022-08-17T10:11:33.578Z,94730.34
2022-08-17T10:14:38.094Z,94736.00
2022-08-17T10:17:33.928Z,94727.63
2022-08-17T10:20:03.207Z,94730.81
2022-08-17T10:22:41.730Z,94720.50
2022-08-17T10:25:23.459Z,94724.47
2022-08-17T10:28:04.480Z,94726.16
2022-08-17T10:30:43.659Z,94714.31
2022-08-17T10:33:24.114Z,94711.34
2022-08-17T10:36:23.250Z,94700.72
2022-08-17T10:39:07.398Z,94705.72
2022-08-17T10:41:43.820Z,94706.50
2022-08-17T10:44:40.424Z,94694.53
2022-08-17T10:47:15.081Z,94688.28
2022-08-17T10:49:48.177Z,94687.25
2022-08-17T10:52:20.960Z,94675.03
2022-08-17T10:54:56.694Z,94678.25
2022-08-17T10:57:31.222Z,94677.84
2022-08-17T11:00:00.548Z,94678.66
2022-08-17T11:02:59.532Z,94683.47
2022-08-17T11:05:33.273Z,94682.75
2022-08-17T11:08:24.866Z,94671.47
2022-08-17T11:11:10.839Z,94668.00
2022-08-17T11:14:06.427Z,94667.13
2022-08-17T11:16:49.834Z,94660.78
2022-08-17T11:20:10.881Z,94665.56
2022-08-17T11:22:58.455Z,94661.81
2022-08-17T11:25:53.184Z,94663.31
2022-08-17T11:28:29.014Z,94670.19
2022-08-17T11:31:08.313Z,94676.03
2022-08-17T11:33:36.826Z,94670.19
2022-08-17T11:36:16.677Z,94675.97
2022-08-17T11:38:51.321Z,94666.41
2022-08-17T11:41:47.173Z,94668.94
2022-08-17T11:44:36.103Z,94659.53
2022-08-17T11:47:20.700Z,94663.47
2022-08-17T11:50:16.011Z,94652.69
2022-08-17T11:52:49.925Z,94636.97
2022-08-17T11:55:38.458Z,94637.34
2022-08-17T11:58:17.949Z,94629.22
2022-08-17T12:00:47.373Z,94624.66
2022-08-17T12:03:22.997Z,94621.69
2022-08-17T12:06:00.131Z,94626.09
2022-08-17T12:08:28.259Z,94619.31
2022-08-17T12:11:03.317Z,94625.44
2022-08-17T12:13:39.527Z,94610.19
2022-08-17T12:16:07.384Z,94607.25
2022-08-17T12:18:37.038Z,94597.41
2022-08-17T12:21:12.968Z,94585.03
2022-08-17T12:23:48.941Z,94583.28
2022-08-17T12:26:23.218Z,94584.50
2022-08-17T12:28:59.753Z,94597.88
2022-08-17T12:31:41.935Z,94604.84
2022-08-17T12:34:17.006Z,94597.03
2022-08-17T12:36:43.904Z,94597.69
2022-08-17T12:39:13.985Z,94594.00
2022-08-17T12:41:48.072Z,94585.66
2022-08-17T12:44:30.500Z,94589.09
2022-08-17T12:47:04.854Z,94587.13
2022-08-17T12:49:37.965Z,94573.38
2022-08-17T12:52:04.653Z,94575.53
2022-08-17T12:54:51.871Z,94566.16
2022-08-17T12:57:38.720Z,94557.34
2022-08-17T13:00:17.297Z,94547.22
2022-08-17T13:02:51.241Z,94549.69
2022-08-17T13:05:38.361Z,94532.38
2022-08-17T13:08:16.245Z,94528.75
2022-08-17T13:10:43.789Z,94524.50
2022-08-17T13:13:38.415Z,94520.22
2022-08-17T13:16:19.044Z,94515.03
2022-08-17T13:18:48.428Z,94516.19
2022-08-17T13:21:20.829Z,94509.47
2022-08-17T13:24:04.569Z,94515.66
2022-08-17T13:26:40.429Z,94506.78
2022-08-17T13:29:18.705Z,94503.41
2022-08-17T13:31:52.682Z,94509.53
2022-08-17T13:34:27.198Z,94498.63
2022-08-17T13:37:24.652Z,94491.53
2022-08-17T13:39:55.160Z,94490.41
2022-08-17T13:42:53.369Z,94494.22
2022-08-17T13:45:36.125Z,94498.38
2022-08-17T13:48:25.394Z,94493.19
2022-08-17T13:50:51.977Z,94513.91
2022-08-17T13:53:36.873Z,94519.63
2022-08-17T13:56:06.282Z,94520.81
2022-08-17T13:59:06.227Z,94520.84
2022-08-17T14:01:34.715Z,94524.94
2022-08-17T14:04:17.679Z,94527.31
2022-08-17T14:07:08.795Z,94518.09
2022-08-17T14:09:39.845Z,94516.81
2022-08-17T14:12:13.251Z,94511.00
2022-08-17T14:14:40.449Z,94502.47
2022-08-17T14:17:07.088Z,94506.88
2022-08-17T14:19:35.121Z,94513.28
2022-08-17T14:22:02.536Z,94505.69
2022-08-17T14:24:33.048Z,94506.50
2022-08-17T14:27:01.907Z,94504.84
2022-08-17T14:29:31.079Z,94505.09
2022-08-17T14:32:01.338Z,94508.28
2022-08-17T14:34:27.942Z,94491.34
2022-08-17T14:36:54.663Z,94475.28
2022-08-17T14:39:21.333Z,94497.06
2022-08-17T14:41:48.382Z,94506.88
2022-08-17T14:44:15.849Z,94505.38
2022-08-17T14:46:44.832Z,94507.19
2022-08-17T14:49:14.264Z,94492.13
2022-08-17T14:51:43.928Z,94485.78
2022-08-17T14:54:33.168Z,94488.00
2022-08-17T14:57:24.777Z,94483.41
2022-08-17T14:59:55.144Z,94473.03
2022-08-17T15:02:29.456Z,94464.56
2022-08-17T15:05:05.861Z,94471.13
2022-08-17T15:07:32.587Z,94458.16
2022-08-17T15:10:00.708Z,94461.47
2022-08-17T15:12:32.330Z,94450.31
2022-08-17T15:15:01.599Z,94450.59
2022-08-17T15:17:45.277Z,94466.25
2022-08-17T15:20:25.504Z,94452.00
2022-08-17T15:22:52.592Z,94446.81
2022-08-17T15:25:19.410Z,94427.81
2022-08-17T15:27:46.325Z,94431.56
2022-08-17T15:30:13.283Z,94425.72
2022-08-17T15:32:50.825Z,94439.38
2022-08-17T15:35:28.147Z,94433.81
2022-08-17T15:38:07.920Z,94428.09
2022-08-17T15:40:40.011Z,94413.06
2022-08-17T15:43:08.517Z,94411.06
2022-08-17T15:45:35.136Z,94404.53
2022-08-17T15:48:01.995Z,94410.81
2022-08-17T15:50:28.685Z,94403.25
2022-08-17T15:53:01.765Z,94388.00
2022-08-17T15:55:30.886Z,94378.66
2022-08-17T15:57:57.667Z,94368.59
2022-08-17T16:00:24.452Z,94342.09
2022-08-17T16:03:13.587Z,94340.91
2022-08-17T16:05:38.464Z,94375.88
2022-08-17T16:08:07.959Z,94387.72
2022-08-17T16:10:35.665Z,94404.56
2022-08-17T16:13:04.613Z,94406.13
2022-08-17T16:15:31.714Z,94419.09
2022-08-17T16:17:58.875Z,94430.75
2022-08-17T16:23:29.662Z,94406.78
2022-08-17T16:26:00.846Z,94424.56
2022-08-17T16:28:35.904Z,94453.28
2022-08-17T16:31:08.218Z,94519.19
2022-08-17T16:33:37.890Z,94600.22
2022-08-17T16:36:05.605Z,94649.63
2022-08-17T16:38:32.569Z,94694.00
2022-08-17T16:40:59.223Z,94715.50
2022-08-17T16:43:26.016Z,94767.31
2022-08-17T16:45:52.940Z,94806.81
2022-08-17T16:48:19.753Z,94790.88
2022-08-17T16:51:03.175Z,94786.38
2022-08-17T16:53:31.723Z,94830.59
2022-08-17T16:55:58.439Z,94846.78
2022-08-17T16:58:25.071Z,94867.63
2022-08-17T17:00:51.741Z,94867.16
2022-08-17T17:03:23.679Z,94861.81
2022-08-17T17:06:08.055Z,94858.59
2022-08-17T17:08:47.948Z,94836.91
2022-08-17T17:11:23.457Z,94834.50
2022-08-17T17:13:57.498Z,94853.66
2022-08-17T17:16:50.330Z,94875.41
2022-08-17T17:19:44.212Z,94882.00
2022-08-17T17:22:28.558Z,94898.22
2022-08-17T17:25:14.053Z,94905.97
2022-08-17T17:27:56.422Z,94916.28
2022-08-17T17:30:29.038Z,94929.00
2022-08-17T17:33:04.826Z,94932.41
2022-08-17T17:35:50.185Z,94934.13
2022-08-17T17:38:23.941Z,94932.53
2022-08-17T17:41:02.989Z,94926.63
2022-08-17T17:43:40.342Z,94917.84
2022-08-17T17:46:27.241Z,94933.94
2022-08-17T17:48:59.715Z,94943.25
2022-08-17T17:52:09.643Z,94956.53
2022-08-17T17:54:50.174Z,94961.25
2022-08-17T17:57:33.485Z,94970.19
2022-08-17T18:00:12.333Z,94978.19
2022-08-17T18:03:19.425Z,94986.41
2022-08-17T18:05:58.243Z,94996.38
2022-08-17T18:08:52.233Z,94987.56
2022-08-17T18:11:25.016Z,94997.59
2022-08-17T18:14:03.864Z,95001.69
2022-08-17T18:16:32.179Z,94994.81
2022-08-17T18:19:00.128Z,94994.53
2022-08-17T18:21:37.997Z,94982.53
2022-08-17T18:24:08.938Z,94988.53
2022-08-17T18:26:45.924Z,94988.22
2022-08-17T18:29:25.861Z,94999.66
2022-08-17T18:32:36.808Z,95012.41
2022-08-17T18:35:26.574Z,95007.28
2022-08-17T18:38:27.389Z,94994.75
2022-08-17T18:41:18.452Z,94988.69
2022-08-17T18:44:00.572Z,94997.59
2022-08-17T18:46:30.203Z,95011.75
2022-08-17T18:49:23.893Z,95028.19
2022-08-17T18:52:11.012Z,95046.72
2022-08-17T18:54:38.284Z,95057.84
2022-08-17T18:57:07.325Z,95052.63
2022-08-17T18:59:44.326Z,95040.56
2022-08-17T19:02:22.092Z,95048.00
2022-08-17T19:05:14.290Z,95062.13
2022-08-17T19:07:44.966Z,95064.13
2022-08-17T19:10:17.669Z,95063.00
2022-08-17T19:12:52.817Z,95056.41
2022-08-17T19:15:45.502Z,95051.03
2022-08-17T19:18:38.566Z,95051.69
2022-08-17T19:21:20.274Z,95054.63
2022-08-17T19:24:00.505Z,95045.06
2022-08-17T19:26:53.354Z,95046.13
2022-08-17T19:30:08.117Z,95042.41
2022-08-17T19:32:37.223Z,95039.97
2022-08-17T19:35:10.489Z,95036.19
2022-08-17T19:37:52.929Z,95046.56
2022-08-17T19:40:51.043Z,95050.28
2022-08-17T19:43:30.385Z,95064.38
2022-08-17T19:46:23.794Z,95058.03
2022-08-17T19:48:56.933Z,95063.41
2022-08-17T19:51:39.901Z,95052.91
2022-08-17T19:54:21.941Z,95057.59
2022-08-17T19:57:06.713Z,95063.66
2022-08-17T19:59:55.003Z,95068.78
2022-08-17T20:02:37.233Z,95075.19
2022-08-17T20:06:10.998Z,95069.03
2022-08-17T20:08:39.846Z,95061.34
2022-08-17T20:11:16.370Z,95050.22
2022-08-17T20:13:49.833Z,95048.19
2022-08-17T20:16:20.122Z,95034.84
2022-08-17T20:19:11.338Z,95028.44
2022-08-17T20:22:08.979Z,95024.53
2022-08-17T20:24:48.218Z,95014.34
2022-08-17T20:27:20.797Z,95010.78
2022-08-17T20:30:13.156Z,95016.50
2022-08-17T20:32:53.135Z,95007.50
2022-08-17T20:35:22.766Z,95009.63
2022-08-17T20:38:06.372Z,95011.53
2022-08-17T20:40:38.302Z,95016.63
2022-08-17T20:43:29.961Z,95021.66
2022-08-17T20:46:36.694Z,95007.44
2022-08-17T20:49:25.802Z,94990.94
2022-08-17T20:52:08.219Z,94975.75
2022-08-17T20:54:43.538Z,94984.88
2022-08-17T20:57:32.937Z,94976.06
2022-08-17T21:00:30.273Z,94978.16
2022-08-17T21:03:20.543Z,94980.06
2022-08-17T21:06:01.347Z,94981.91
2022-08-17T21:08:51.138Z,94979.81
2022-08-17T21:12:02.735Z,94968.28
2022-08-17T21:15:03.229Z,94981.19
2022-08-17T21:18:12.185Z,94982.84
2022-08-17T21:21:03.404Z,94982.66
2022-08-17T21:23:32.724Z,94986.16
2022-08-17T21:26:05.264Z,94976.88
2022-08-17T21:29:29.490Z,94966.34
2022-08-17T21:32:03.279Z,94977.16
2022-08-17T21:34:32.389Z,94980.06
2022-08-17T21:37:20.669Z,94973.38
2022-08-17T21:40:10.067Z,94971.16
2022-08-17T21:42:51.873Z,94969.03
2022-08-17T21:45:35.022Z,94965.38
2022-08-17T21:48:19.459Z,94963.78
2022-08-17T21:50:59.292Z,94945.38
2022-08-17T21:53:36.315Z,94912.56
2022-08-17T21:56:03.474Z,94890.06
2022-08-17T21:58:33.168Z,94869.00
2022-08-17T22:01:19.113Z,94872.41
2022-08-17T22:03:54.171Z,94903.91
2022-08-17T22:06:25.105Z,94933.63
2022-08-17T22:09:01.338Z,94952.28
2022-08-17T22:11:28.232Z,94962.47
2022-08-17T22:14:00.601Z,94968.69
2022-08-17T22:16:33.013Z,94964.03
2022-08-17T22:18:59.790Z,94963.50
2022-08-17T22:21:27.403Z,94959.78
2022-08-17T22:24:15.523Z,94960.19
2022-08-17T22:27:06.226Z,94977.66
2022-08-17T22:29:47.953Z,94978.75
2022-08-17T22:32:37.537Z,94981.97
2022-08-17T22:35:31.554Z,94972.34
2022-08-17T22:38:19.927Z,94965.66
2022-08-17T22:40:47.780Z,94969.22
2022-08-17T22:43:14.567Z,94969.22
2022-08-17T22:45:53.019Z,94958.84
2022-08-17T22:48:26.722Z,94952.09
2022-08-17T22:51:12.900Z,94950.69
2022-08-17T22:53:53.756Z,94947.84
2022-08-17T22:56:24.911Z,94955.78
2022-08-17T22:58:58.785Z,94955.00
2022-08-17T23:01:32.728Z,94947.47
2022-08-17T23:04:03.191Z,94939.75
2022-08-17T23:06:31.748Z,94948.59
2022-08-17T23:08:58.374Z,94942.69
2022-08-17T23:11:36.844Z,94943.31
2022-08-17T23:14:16.097Z,94947.69
2022-08-17T23:16:43.007Z,94961.25
2022-08-17T23:19:11.506Z,94958.16
2022-08-17T23:21:38.580Z,94960.53
2022-08-17T23:24:06.420Z,94961.09
2022-08-17T23:26:35.722Z,94968.34
2022-08-17T23:29:02.391Z,94974.47
2022-08-17T23:31:30.178Z,94969.09
2022-08-17T23:33:56.852Z,94978.09
2022-08-17T23:36:23.459Z,94973.13
2022-08-17T23:38:50.077Z,94959.16
2022-08-17T23:41:20.193Z,94965.91
2022-08-17T23:43:50.934Z,94964.06
2022-08-17T23:46:18.407Z,94962.97
2022-08-17T23:48:45.071Z,94952.69
2022-08-17T23:51:17.318Z,94951.69
2022-08-17T23:53:47.990Z,94957.00
2022-08-17T23:56:15.246Z,94958.13
2022-08-17T23:58:43.662Z,94959.75
